sensor_id;sensor_type;location;lat;lon;timestamp;pressure;altitude;pressure_sealevel;temperature;humidity
50087;BME280;35967;50.718;7.050;2023-04-28T00:06:39;100487.47;;;13.72;55.77
50087;BME280;35967;50.718;7.050;2023-04-28T00:16:43;100469.63;;;13.88;55.95
50087;BME280;35967;50.718;7.050;2023-04-28T00:26:47;100463.13;;;13.78;59.44
50087;BME280;35967;50.718;7.050;2023-04-28T00:36:51;100455.75;;;13.45;60.70
50087;BME280;35967;50.718;7.050;2023-04-28T00:46:55;100452.09;;;13.51;62.18
50087;BME280;35967;50.718;7.050;2023-04-28T00:57:00;100428.91;;;13.24;67.92
50087;BME280;35967;50.718;7.050;2023-04-28T01:07:03;100395.38;;;12.99;69.99
50087;BME280;35967;50.718;7.050;2023-04-28T01:17:09;100398.97;;;12.94;68.85
50087;BME280;35967;50.718;7.050;2023-04-28T01:27:15;100412.56;;;13.00;70.31
50087;BME280;35967;50.718;7.050;2023-04-28T01:37:18;100408.38;;;12.72;73.04
50087;BME280;35967;50.718;7.050;2023-04-28T01:47:23;100389.22;;;12.54;74.69
50087;BME280;35967;50.718;7.050;2023-04-28T01:57:26;100401.59;;;12.44;75.09
50087;BME280;35967;50.718;7.050;2023-04-28T02:07:32;100392.41;;;12.35;76.37
50087;BME280;35967;50.718;7.050;2023-04-28T02:17:37;100386.41;;;12.35;75.71
50087;BME280;35967;50.718;7.050;2023-04-28T02:39:49;100378.34;;;12.19;78.94
50087;BME280;35967;50.718;7.050;2023-04-28T02:49:54;100375.44;;;12.29;79.87
50087;BME280;35967;50.718;7.050;2023-04-28T02:59:59;100373.44;;;12.11;82.51
50087;BME280;35967;50.718;7.050;2023-04-28T03:10:09;100375.50;;;12.26;84.21
50087;BME280;35967;50.718;7.050;2023-04-28T03:20:14;100357.38;;;12.28;85.27
50087;BME280;35967;50.718;7.050;2023-04-28T03:30:18;100344.44;;;12.29;86.82
50087;BME280;35967;50.718;7.050;2023-04-28T03:40:23;100335.53;;;12.38;86.70
50087;BME280;35967;50.718;7.050;2023-04-28T03:50:44;100310.63;;;12.37;87.51
50087;BME280;35967;50.718;7.050;2023-04-28T04:00:49;100301.16;;;12.12;88.13
50087;BME280;35967;50.718;7.050;2023-04-28T04:10:52;100287.31;;;11.88;88.96
50087;BME280;35967;50.718;7.050;2023-04-28T04:20:58;100259.63;;;12.19;89.73
50087;BME280;35967;50.718;7.050;2023-04-28T04:31:02;100260.72;;;12.13;88.83
50087;BME280;35967;50.718;7.050;2023-04-28T04:41:06;100257.41;;;12.09;88.09
50087;BME280;35967;50.718;7.050;2023-04-28T04:51:09;100249.31;;;12.19;88.16
50087;BME280;35967;50.718;7.050;2023-04-28T05:01:14;100299.03;;;12.24;88.85
50087;BME280;35967;50.718;7.050;2023-04-28T05:11:18;100303.09;;;12.31;89.77
50087;BME280;35967;50.718;7.050;2023-04-28T05:21:22;100308.50;;;12.23;90.69
50087;BME280;35967;50.718;7.050;2023-04-28T05:31:25;100299.28;;;12.18;92.01
50087;BME280;35967;50.718;7.050;2023-04-28T05:41:30;100289.75;;;11.93;93.13
50087;BME280;35967;50.718;7.050;2023-04-28T05:51:33;100281.78;;;12.01;93.76
50087;BME280;35967;50.718;7.050;2023-04-28T06:01:38;100265.25;;;11.79;92.69
50087;BME280;35967;50.718;7.050;2023-04-28T06:11:41;100248.31;;;11.72;92.00
50087;BME280;35967;50.718;7.050;2023-04-28T06:21:45;100253.78;;;11.88;90.88
50087;BME280;35967;50.718;7.050;2023-04-28T06:31:51;100248.34;;;11.96;91.92
50087;BME280;35967;50.718;7.050;2023-04-28T06:42:00;100263.63;;;12.04;92.00
50087;BME280;35967;50.718;7.050;2023-04-28T06:52:07;100259.13;;;12.09;92.04
50087;BME280;35967;50.718;7.050;2023-04-28T07:02:12;100256.25;;;12.42;92.17
50087;BME280;35967;50.718;7.050;2023-04-28T07:12:16;100259.72;;;12.65;92.17
50087;BME280;35967;50.718;7.050;2023-04-28T07:22:21;100265.81;;;12.86;92.58
50087;BME280;35967;50.718;7.050;2023-04-28T07:32:28;100266.75;;;13.07;90.94
50087;BME280;35967;50.718;7.050;2023-04-28T07:42:32;100262.16;;;13.36;92.63
50087;BME280;35967;50.718;7.050;2023-04-28T07:52:35;100270.63;;;13.62;91.21
50087;BME280;35967;50.718;7.050;2023-04-28T08:02:40;100270.97;;;13.54;91.99
50087;BME280;35967;50.718;7.050;2023-04-28T08:12:43;100253.38;;;13.83;91.84
50087;BME280;35967;50.718;7.050;2023-04-28T08:22:48;100260.81;;;14.11;91.29
50087;BME280;35967;50.718;7.050;2023-04-28T08:32:51;100267.44;;;14.38;90.86
50087;BME280;35967;50.718;7.050;2023-04-28T08:42:56;100266.81;;;14.32;91.58
50087;BME280;35967;50.718;7.050;2023-04-28T08:53:02;100257.50;;;14.47;91.50
50087;BME280;35967;50.718;7.050;2023-04-28T09:03:07;100281.69;;;14.46;92.10
50087;BME280;35967;50.718;7.050;2023-04-28T09:13:23;100270.47;;;14.66;92.69
50087;BME280;35967;50.718;7.050;2023-04-28T09:23:28;100260.66;;;14.92;92.80
50087;BME280;35967;50.718;7.050;2023-04-28T09:33:31;100258.97;;;15.10;92.50
50087;BME280;35967;50.718;7.050;2023-04-28T09:43:35;100255.84;;;15.04;94.80
50087;BME280;35967;50.718;7.050;2023-04-28T09:53:41;100259.19;;;15.06;96.38
50087;BME280;35967;50.718;7.050;2023-04-28T10:03:47;100251.13;;;15.12;97.44
50087;BME280;35967;50.718;7.050;2023-04-28T10:13:52;100248.91;;;15.22;97.82
50087;BME280;35967;50.718;7.050;2023-04-28T10:24:07;100250.31;;;15.29;99.44
50087;BME280;35967;50.718;7.050;2023-04-28T10:34:21;100253.81;;;15.28;100.00
50087;BME280;35967;50.718;7.050;2023-04-28T10:44:41;100250.97;;;15.15;100.00
50087;BME280;35967;50.718;7.050;2023-04-28T10:55:26;100234.91;;;15.61;100.00
50087;BME280;35967;50.718;7.050;2023-04-28T11:05:30;100235.44;;;15.50;100.00
50087;BME280;35967;50.718;7.050;2023-04-28T11:15:35;100235.22;;;15.55;100.00
50087;BME280;35967;50.718;7.050;2023-04-28T11:36:06;100208.69;;;16.66;100.00
50087;BME280;35967;50.718;7.050;2023-04-28T11:46:15;100212.13;;;16.51;100.00
50087;BME280;35967;50.718;7.050;2023-04-28T11:56:20;100206.66;;;16.23;100.00
50087;BME280;35967;50.718;7.050;2023-04-28T12:06:23;100196.47;;;17.00;100.00
50087;BME280;35967;50.718;7.050;2023-04-28T12:16:41;100183.22;;;17.50;100.00
50087;BME280;35967;50.718;7.050;2023-04-28T12:26:49;100187.25;;;17.25;100.00
50087;BME280;35967;50.718;7.050;2023-04-28T12:36:53;100176.88;;;17.09;100.00
50087;BME280;35967;50.718;7.050;2023-04-28T12:46:56;100162.59;;;17.76;100.00
50087;BME280;35967;50.718;7.050;2023-04-28T12:57:01;100155.22;;;18.40;97.25
50087;BME280;35967;50.718;7.050;2023-04-28T13:07:04;100145.22;;;19.42;89.41
50087;BME280;35967;50.718;7.050;2023-04-28T13:17:10;100097.22;;;19.82;81.41
50087;BME280;35967;50.718;7.050;2023-04-28T13:27:14;100135.69;;;18.88;86.65
50087;BME280;35967;50.718;7.050;2023-04-28T13:37:18;100121.94;;;18.31;100.00
50087;BME280;35967;50.718;7.050;2023-04-28T13:47:21;100121.47;;;18.66;97.30
50087;BME280;35967;50.718;7.050;2023-04-28T13:57:26;100120.66;;;18.51;98.42
50087;BME280;35967;50.718;7.050;2023-04-28T14:07:29;100128.47;;;18.24;99.41
50087;BME280;35967;50.718;7.050;2023-04-28T14:17:33;100108.50;;;18.37;99.38
50087;BME280;35967;50.718;7.050;2023-04-28T14:27:38;100080.88;;;18.62;92.10
50087;BME280;35967;50.718;7.050;2023-04-28T14:37:42;100088.41;;;18.39;89.49
50087;BME280;35967;50.718;7.050;2023-04-28T14:47:45;100083.31;;;18.78;93.99
50087;BME280;35967;50.718;7.050;2023-04-28T14:57:50;100078.81;;;18.80;87.52
50087;BME280;35967;50.718;7.050;2023-04-28T15:07:54;100074.09;;;19.13;80.75
50087;BME280;35967;50.718;7.050;2023-04-28T15:17:59;100101.44;;;19.59;75.90
50087;BME280;35967;50.718;7.050;2023-04-28T15:28:03;100097.25;;;19.69;74.68
50087;BME280;35967;50.718;7.050;2023-04-28T15:38:09;100118.56;;;19.63;69.31
50087;BME280;35967;50.718;7.050;2023-04-28T15:48:12;100123.66;;;19.64;70.25
50087;BME280;35967;50.718;7.050;2023-04-28T15:58:17;100130.06;;;19.47;67.22
50087;BME280;35967;50.718;7.050;2023-04-28T16:08:21;100142.03;;;19.24;66.30
50087;BME280;35967;50.718;7.050;2023-04-28T16:18:27;100160.72;;;19.18;67.89
50087;BME280;35967;50.718;7.050;2023-04-28T16:28:31;100185.41;;;18.99;68.24
50087;BME280;35967;50.718;7.050;2023-04-28T16:38:35;100200.94;;;18.73;72.89
50087;BME280;35967;50.718;7.050;2023-04-28T16:48:38;100221.34;;;18.25;73.79
50087;BME280;35967;50.718;7.050;2023-04-28T16:58:42;100239.53;;;17.96;75.66
50087;BME280;35967;50.718;7.050;2023-04-28T17:08:46;100262.38;;;17.76;78.08
50087;BME280;35967;50.718;7.050;2023-04-28T17:18:52;100270.44;;;17.41;77.92
50087;BME280;35967;50.718;7.050;2023-04-28T17:28:56;100286.09;;;17.25;78.37
50087;BME280;35967;50.718;7.050;2023-04-28T17:39:02;100295.69;;;17.09;77.59
50087;BME280;35967;50.718;7.050;2023-04-28T17:49:05;100306.13;;;16.91;76.73
50087;BME280;35967;50.718;7.050;2023-04-28T17:59:10;100318.13;;;16.78;75.67
50087;BME280;35967;50.718;7.050;2023-04-28T18:09:15;100339.34;;;16.86;74.24
50087;BME280;35967;50.718;7.050;2023-04-28T18:19:19;100337.81;;;16.66;75.14
50087;BME280;35967;50.718;7.050;2023-04-28T18:29:24;100341.56;;;16.60;76.45
50087;BME280;35967;50.718;7.050;2023-04-28T18:39:28;100348.44;;;16.61;75.29
50087;BME280;35967;50.718;7.050;2023-04-28T18:49:31;100365.44;;;16.51;74.23
50087;BME280;35967;50.718;7.050;2023-04-28T18:59:36;100351.53;;;16.52;73.21
50087;BME280;35967;50.718;7.050;2023-04-28T19:09:40;100363.16;;;16.45;72.80
50087;BME280;35967;50.718;7.050;2023-04-28T19:19:45;100378.75;;;16.78;73.35
50087;BME280;35967;50.718;7.050;2023-04-28T19:29:49;100390.31;;;16.55;74.06
50087;BME280;35967;50.718;7.050;2023-04-28T19:39:54;100398.38;;;16.50;74.73
50087;BME280;35967;50.718;7.050;2023-04-28T19:49:57;100401.16;;;16.63;74.92
50087;BME280;35967;50.718;7.050;2023-04-28T20:00:02;100411.31;;;16.68;75.12
50087;BME280;35967;50.718;7.050;2023-04-28T20:10:10;100405.09;;;16.54;76.47
50087;BME280;35967;50.718;7.050;2023-04-28T20:20:14;100410.59;;;16.31;77.51
50087;BME280;35967;50.718;7.050;2023-04-28T20:30:17;100407.31;;;16.27;77.85
50087;BME280;35967;50.718;7.050;2023-04-28T20:40:25;100412.56;;;16.43;77.38
50087;BME280;35967;50.718;7.050;2023-04-28T20:50:29;100409.47;;;16.19;78.33
50087;BME280;35967;50.718;7.050;2023-04-28T21:00:35;100422.34;;;16.03;80.04
50087;BME280;35967;50.718;7.050;2023-04-28T21:10:41;100428.06;;;15.92;80.29
50087;BME280;35967;50.718;7.050;2023-04-28T21:20:45;100431.53;;;15.73;79.20
50087;BME280;35967;50.718;7.050;2023-04-28T21:30:50;100438.25;;;15.77;78.15
50087;BME280;35967;50.718;7.050;2023-04-28T21:40:54;100437.28;;;15.61;77.38
50087;BME280;35967;50.718;7.050;2023-04-28T21:50:58;100452.22;;;15.56;77.96
50087;BME280;35967;50.718;7.050;2023-04-28T22:01:05;100452.38;;;15.53;78.47
50087;BME280;35967;50.718;7.050;2023-04-28T22:11:08;100450.63;;;15.53;78.86
50087;BME280;35967;50.718;7.050;2023-04-28T22:21:13;100467.13;;;15.12;83.81
50087;BME280;35967;50.718;7.050;2023-04-28T22:31:16;100477.31;;;14.77;89.16
50087;BME280;35967;50.718;7.050;2023-04-28T22:41:21;100467.88;;;14.75;91.64
50087;BME280;35967;50.718;7.050;2023-04-28T22:51:26;100461.75;;;14.77;91.53
50087;BME280;35967;50.718;7.050;2023-04-28T23:01:30;100474.56;;;14.80;91.65
50087;BME280;35967;50.718;7.050;2023-04-28T23:11:34;100476.16;;;14.83;91.72
50087;BME280;35967;50.718;7.050;2023-04-28T23:21:38;100473.34;;;14.89;91.36
50087;BME280;35967;50.718;7.050;2023-04-28T23:31:41;100477.81;;;14.43;91.58
50087;BME280;35967;50.718;7.050;2023-04-28T23:41:45;100485.53;;;14.44;88.29
50087;BME280;35967;50.718;7.050;2023-04-28T23:51:48;100494.03;;;14.48;86.83
